»·PEaware :: G-GAMM KSMX-KBFL

G-GAMM :: KSMX-KBFL

FLIGHT INFORMATION

Flight Status: Arrived
Operator: Privately registered:
United Kingdom
More flights under this callsign
Pilot: Malcolm M. (20352)
Aircraft: CESSNA 172 SKYHAWK
(C172)
More flights by this aircraft type
Origin: KSMX Santa Maria Pub/Capt Hancock
United States
Destination: KBFL Meadows
United States
More flights between these airports :: More routes between these airports
Route: +
File this flight plan on PilotEdge
Remarks: Cat 5 rating
Altitude:
(Current/Filed)
5,500ft
Speed:
(Current/Filed)
100kts
Departed: 14-Sep-18 11:21 AM
Arrived: 14-Sep-18 12:10 PM
Distance/Time
Traveled:
76nm/0:49
Distance/Time
To Go:
Arrived

Flight Plot

Page will automatically refresh every two minutes.


Map Options




Map Legend


Flown Route
Filed Route
Departure Airport
Arrival Airport
Navaid (VOR, NDB)
Fix

Horizontal Profiles

Position Reports

Time Latitude Longitude Heading Altitude Ground
Speed
14-Sep-18 11:05 34.898546 -120.448186 46 264ft 0kts
14-Sep-18 11:06 34.898546 -120.448186 46 264ft 0kts
14-Sep-18 11:07 34.898546 -120.448186 46 264ft 0kts
14-Sep-18 11:08 34.898546 -120.448186 46 264ft 0kts
14-Sep-18 11:09 34.898546 -120.448186 46 264ft 0kts
14-Sep-18 11:10 34.898546 -120.448186 46 264ft 0kts
14-Sep-18 11:11 34.898546 -120.448186 46 264ft 0kts
14-Sep-18 11:12 34.898546 -120.448186 46 264ft 0kts
14-Sep-18 11:13 34.898546 -120.448186 46 264ft 0kts
14-Sep-18 11:14 34.898730 -120.448246 295 264ft 1kts
14-Sep-18 11:15 34.898570 -120.449127 244 264ft 0kts
14-Sep-18 11:16 34.898570 -120.449128 244 264ft 0kts
14-Sep-18 11:17 34.898569 -120.449129 244 264ft 0kts
14-Sep-18 11:18 34.897878 -120.449920 140 264ft 6kts
14-Sep-18 11:19 34.894640 -120.446002 142 264ft 13kts
14-Sep-18 11:20 34.893518 -120.445718 182 264ft 0kts
14-Sep-18 11:21 34.893517 -120.445718 182 264ft 0kts
14-Sep-18 11:22 34.893450 -120.446642 314 264ft 24kts
14-Sep-18 11:23 34.909080 -120.465682 314 849ft 94kts
14-Sep-18 11:24 34.924781 -120.483794 334 1293ft 106kts
14-Sep-18 11:25 34.933365 -120.452600 95 1533ft 113kts
14-Sep-18 11:26 34.931354 -120.415695 89 2172ft 106kts
14-Sep-18 11:27 34.927825 -120.380245 95 2828ft 104kts
14-Sep-18 11:28 34.925066 -120.345471 82 3486ft 101kts
14-Sep-18 11:29 34.932747 -120.313781 55 4150ft 94kts
14-Sep-18 11:30 34.948049 -120.288364 44 4814ft 92kts
14-Sep-18 11:31 34.963763 -120.263699 51 5447ft 94kts
14-Sep-18 11:32 34.977163 -120.230526 65 5498ft 118kts
14-Sep-18 11:33 34.986269 -120.191640 70 5503ft 119kts
14-Sep-18 11:34 34.996192 -120.152959 64 5503ft 118kts
14-Sep-18 11:35 35.009280 -120.116121 60 5503ft 118kts
14-Sep-18 11:36 35.022628 -120.079425 62 5503ft 118kts
14-Sep-18 11:37 35.034769 -120.041989 64 5503ft 118kts
14-Sep-18 11:38 35.046847 -120.004865 63 5503ft 118kts
14-Sep-18 11:39 35.059244 -119.967740 63 5501ft 119kts
14-Sep-18 11:40 35.071644 -119.930303 63 5500ft 119kts
14-Sep-18 11:41 35.084084 -119.892749 63 5500ft 119kts
14-Sep-18 11:42 35.096492 -119.855286 63 5500ft 119kts
14-Sep-18 11:43 35.108950 -119.817717 63 5500ft 119kts
14-Sep-18 11:44 35.121417 -119.780202 63 5499ft 119kts
14-Sep-18 11:45 35.132959 -119.745102 63 5818ft 111kts
14-Sep-18 11:46 35.145313 -119.708208 63 5811ft 119kts
14-Sep-18 11:47 35.157996 -119.670607 63 5814ft 118kts
14-Sep-18 11:48 35.174326 -119.637353 34 5831ft 113kts
14-Sep-18 11:49 35.199651 -119.614321 34 5826ft 113kts
14-Sep-18 11:50 35.222274 -119.586975 47 5577ft 112kts
14-Sep-18 11:51 35.238333 -119.554817 59 4959ft 111kts
14-Sep-18 11:52 35.251885 -119.520459 60 4347ft 114kts
14-Sep-18 11:53 35.267659 -119.486571 56 3790ft 111kts
14-Sep-18 11:54 35.282973 -119.459079 51 3701ft 104kts
14-Sep-18 11:55 35.301769 -119.428677 51 3070ft 114kts
14-Sep-18 11:56 35.319886 -119.398312 54 2779ft 101kts
14-Sep-18 11:57 35.329981 -119.368178 87 2805ft 98kts
14-Sep-18 11:58 35.331853 -119.331675 85 2800ft 110kts
14-Sep-18 11:59 35.336046 -119.294751 69 2887ft 115kts
14-Sep-18 12:00 35.348248 -119.261968 61 2807ft 110kts
14-Sep-18 12:01 35.362067 -119.228606 60 2817ft 109kts
14-Sep-18 12:02 35.375909 -119.195460 60 2821ft 109kts
14-Sep-18 12:03 35.397470 -119.172842 344 2194ft 134kts
14-Sep-18 12:04 35.431585 -119.188705 336 1915ft 126kts
14-Sep-18 12:05 35.427082 -119.162338 133 1950ft 123kts
14-Sep-18 12:06 35.435761 -119.126667 59 1908ft 102kts
14-Sep-18 12:07 35.442920 -119.095487 110 1822ft 96kts
14-Sep-18 12:08 35.428466 -119.069812 133 1824ft 90kts
14-Sep-18 12:09 35.412432 -119.046673 130 1072ft 91kts
14-Sep-18 12:10 35.423845 -119.041848 297 1098ft 81kts
14-Sep-18 12:11 35.436271 -119.058916 301 510ft 55kts
14-Sep-18 12:12 35.439940 -119.062687 355 510ft 0kts
14-Sep-18 12:13 35.439940 -119.062687 355 510ft 0kts
14-Sep-18 12:14 35.439832 -119.061199 133 510ft 13kts
14-Sep-18 12:15 35.436965 -119.057595 130 510ft 8kts
14-Sep-18 12:16 35.434095 -119.054209 135 510ft 15kts
14-Sep-18 12:17 35.432809 -119.052633 135 510ft 28kts
14-Sep-18 12:18 35.429851 -119.048943 111 510ft 10kts
14-Sep-18 12:19 35.430687 -119.047886 104 510ft 4kts
14-Sep-18 12:20 35.430529 -119.047679 145 510ft 0kts
14-Sep-18 12:21 35.430529 -119.047679 145 510ft 0kts
14-Sep-18 12:22 35.430528 -119.047678 145 510ft 0kts
14-Sep-18 12:23 35.430527 -119.047678 145 510ft 0kts
14-Sep-18 12:24 35.430527 -119.047677 145 510ft 0kts
14-Sep-18 12:25 35.430526 -119.047677 145 510ft 0kts

Navigation Log

Ident Type
1. KSMX Airport
2. KBFL Airport